Time;durP1;ratioP1;P1;durP2;ratioP2;P2;SDS_P1;SDS_P2;PMS_P1;PMS_P2;Temp;Humidity;BMP_temperature;BMP_pressure;BME280_temperature;BME280_humidity;BME280_pressure;Samples;Min_cycle;Max_cycle;Signal;HPM_P1;HPM_P2
2023/01/21 00:01:08;;;;;;;40.05;17.77;;;;;;;;;;5024060;28;20507;-46
2023/01/21 00:03:35;;;;;;;34.42;15.82;;;;;;;;;;5023301;28;20033;-45
2023/01/21 00:06:01;;;;;;;31.70;14.73;;;;;;;;;;5024616;28;20033;-46
2023/01/21 00:08:28;;;;;;;24.98;13.32;;;;;;;;;;5024190;28;20615;-47
2023/01/21 00:10:54;;;;;;;22.65;11.05;;;;;;;;;;5024144;28;20028;-45
2023/01/21 00:13:20;;;;;;;20.98;10.35;;;;;;;;;;5023522;28;20181;-45
2023/01/21 00:15:46;;;;;;;19.58;9.80;;;;;;;;;;5024883;28;20029;-45
2023/01/21 00:18:12;;;;;;;14.73;8.45;;;;;;;;;;5023387;28;20057;-46
2023/01/21 00:20:38;;;;;;;16.40;8.95;;;;;;;;;;5024363;28;20104;-46
2023/01/21 00:23:04;;;;;;;16.17;8.90;;;;;;;;;;5023882;28;20025;-46
2023/01/21 00:25:30;;;;;;;16.08;8.93;;;;;;;;;;5024407;28;20029;-46
2023/01/21 00:27:56;;;;;;;17.52;8.70;;;;;;;;;;5024389;28;20037;-46
2023/01/21 00:30:22;;;;;;;15.60;8.50;;;;;;;;;;5024194;28;20026;-46
2023/01/21 00:32:48;;;;;;;14.13;8.15;;;;;;;;;;5023362;28;20543;-46
2023/01/21 00:35:14;;;;;;;14.18;8.23;;;;;;;;;;5024188;28;20053;-48
2023/01/21 00:37:40;;;;;;;12.82;7.32;;;;;;;;;;5023422;28;20026;-46
2023/01/21 00:40:06;;;;;;;10.70;6.40;;;;;;;;;;5023958;28;20035;-46
2023/01/21 00:42:32;;;;;;;11.77;6.55;;;;;;;;;;5022437;28;20643;-47
2023/01/21 00:44:58;;;;;;;10.77;6.80;;;;;;;;;;5022682;28;20034;-46
2023/01/21 00:47:25;;;;;;;10.68;6.40;;;;;;;;;;5023924;28;20022;-48
2023/01/21 00:49:52;;;;;;;8.85;5.70;;;;;;;;;;5023719;28;20033;-45
2023/01/21 00:52:18;;;;;;;10.02;6.10;;;;;;;;;;5024306;28;20025;-45
2023/01/21 00:54:44;;;;;;;10.35;6.40;;;;;;;;;;5023614;28;20048;-46
2023/01/21 00:57:12;;;;;;;10.07;6.07;;;;;;;;;;5024100;28;20477;-45
2023/01/21 00:59:39;;;;;;;10.50;6.43;;;;;;;;;;5022755;28;20037;-46
2023/01/21 01:02:05;;;;;;;9.50;6.32;;;;;;;;;;5023567;28;20021;-46
2023/01/21 01:04:31;;;;;;;9.25;5.97;;;;;;;;;;5022700;28;20528;-45
2023/01/21 06:13:20;;;;;;;10.05;5.47;;;;;;;;;;5031990;28;20099;-49
2023/01/21 06:15:46;;;;;;;9.68;5.25;;;;;;;;;;5047726;28;20049;-47
2023/01/21 06:18:13;;;;;;;9.02;5.65;;;;;;;;;;5045858;28;20036;-48
2023/01/21 06:20:40;;;;;;;8.65;4.90;;;;;;;;;;5029267;28;20033;-47
2023/01/21 06:23:06;;;;;;;10.88;4.75;;;;;;;;;;5029005;28;20036;-47
2023/01/21 06:25:33;;;;;;;10.00;5.72;;;;;;;;;;5028985;28;20029;-47
2023/01/21 06:28:00;;;;;;;9.40;5.63;;;;;;;;;;5029000;28;20017;-48
2023/01/21 06:30:26;;;;;;;7.93;5.15;;;;;;;;;;5029223;28;20314;-47
2023/01/21 06:32:52;;;;;;;8.02;5.10;;;;;;;;;;5028487;28;20024;-49
2023/01/21 06:35:18;;;;;;;7.38;5.18;;;;;;;;;;5029002;28;20028;-50
2023/01/21 06:37:45;;;;;;;8.75;5.45;;;;;;;;;;5028431;28;20026;-47
2023/01/21 06:40:11;;;;;;;8.80;4.85;;;;;;;;;;5028466;28;20030;-50
2023/01/21 06:42:37;;;;;;;7.05;5.07;;;;;;;;;;5028203;28;20119;-49
2023/01/21 06:45:04;;;;;;;6.75;4.68;;;;;;;;;;5028013;28;20550;-50
2023/01/21 06:47:30;;;;;;;6.63;4.57;;;;;;;;;;5028612;28;20109;-48
2023/01/21 06:49:56;;;;;;;6.72;4.72;;;;;;;;;;5029097;28;20112;-48
2023/01/21 06:52:22;;;;;;;6.70;4.93;;;;;;;;;;5028703;28;20030;-47
2023/01/21 06:54:48;;;;;;;7.20;4.25;;;;;;;;;;5028776;28;20087;-48
2023/01/21 06:57:15;;;;;;;7.55;5.00;;;;;;;;;;5028452;28;20029;-49
2023/01/21 06:59:42;;;;;;;7.20;4.82;;;;;;;;;;5026980;28;20044;-49
2023/01/21 07:02:11;;;;;;;9.50;5.45;;;;;;;;;;5027719;28;20045;-50
2023/01/21 07:04:37;;;;;;;7.22;4.82;;;;;;;;;;5029565;28;20033;-47
2023/01/21 07:07:03;;;;;;;10.13;5.25;;;;;;;;;;5029972;28;20041;-48
2023/01/21 07:09:29;;;;;;;7.85;5.03;;;;;;;;;;5039341;28;20515;-48
2023/01/21 07:11:55;;;;;;;9.45;5.22;;;;;;;;;;5029847;28;20038;-49
2023/01/21 07:14:21;;;;;;;10.52;4.93;;;;;;;;;;5028254;28;20026;-49
2023/01/21 07:16:47;;;;;;;7.65;5.18;;;;;;;;;;5027799;28;20034;-49
2023/01/21 07:19:14;;;;;;;8.18;4.90;;;;;;;;;;5029248;28;20048;-47
2023/01/21 07:21:40;;;;;;;7.45;4.85;;;;;;;;;;5029386;28;20080;-50
2023/01/21 07:24:08;;;;;;;6.80;4.72;;;;;;;;;;5029259;28;20500;-47
2023/01/21 07:26:36;;;;;;;9.23;5.07;;;;;;;;;;5029469;28;20039;-50
2023/01/21 07:29:03;;;;;;;8.35;5.18;;;;;;;;;;5028075;28;20026;-48
2023/01/21 07:31:29;;;;;;;8.40;5.18;;;;;;;;;;5029319;28;20026;-48
2023/01/21 07:33:55;;;;;;;11.35;6.57;;;;;;;;;;5029676;28;20033;-50
2023/01/21 07:36:21;;;;;;;11.77;7.47;;;;;;;;;;5028366;28;20029;-50
2023/01/21 07:38:47;;;;;;;10.75;7.32;;;;;;;;;;5028821;28;20029;-49
2023/01/21 07:41:13;;;;;;;12.15;7.20;;;;;;;;;;5028013;28;20038;-48
2023/01/21 07:43:39;;;;;;;9.85;6.47;;;;;;;;;;5029003;28;20041;-50
2023/01/21 07:46:05;;;;;;;10.02;5.95;;;;;;;;;;5029166;28;20461;-47
2023/01/21 07:48:31;;;;;;;9.38;5.93;;;;;;;;;;5027411;28;20496;-49
2023/01/21 07:50:59;;;;;;;9.13;5.22;;;;;;;;;;5027739;28;20025;-48
2023/01/21 07:53:25;;;;;;;8.43;4.90;;;;;;;;;;5027291;28;20108;-49
2023/01/21 07:55:51;;;;;;;8.30;5.05;;;;;;;;;;5026615;28;20056;-47
2023/01/21 07:58:17;;;;;;;6.60;4.47;;;;;;;;;;5024142;28;20053;-48
2023/01/21 08:00:43;;;;;;;8.40;5.13;;;;;;;;;;5027838;28;20029;-50
2023/01/21 08:03:09;;;;;;;8.38;5.32;;;;;;;;;;5026090;28;20025;-50
2023/01/21 08:05:35;;;;;;;7.72;4.88;;;;;;;;;;5028678;28;20113;-48
2023/01/21 08:08:01;;;;;;;6.68;4.55;;;;;;;;;;5027271;28;20096;-47
2023/01/21 08:10:27;;;;;;;7.68;4.53;;;;;;;;;;5025799;28;20030;-48
2023/01/21 08:12:53;;;;;;;7.32;4.55;;;;;;;;;;5024920;28;20052;-48
2023/01/21 08:15:19;;;;;;;7.95;5.05;;;;;;;;;;5029452;28;20477;-48
2023/01/21 08:17:46;;;;;;;7.85;4.97;;;;;;;;;;5045474;28;20048;-49
2023/01/21 08:20:12;;;;;;;7.03;4.60;;;;;;;;;;5044797;28;20056;-48
2023/01/21 08:22:38;;;;;;;5.70;4.20;;;;;;;;;;5043692;28;20029;-48
2023/01/21 08:25:05;;;;;;;6.45;4.40;;;;;;;;;;5045377;28;20047;-48
2023/01/21 08:27:32;;;;;;;7.00;4.70;;;;;;;;;;5043846;28;20060;-48
2023/01/21 08:29:58;;;;;;;7.72;4.38;;;;;;;;;;5046666;28;20044;-48
2023/01/21 08:32:24;;;;;;;5.47;3.88;;;;;;;;;;5045059;28;20021;-47
2023/01/21 08:34:50;;;;;;;5.68;4.38;;;;;;;;;;5044112;28;20037;-49
2023/01/21 08:37:17;;;;;;;5.72;4.15;;;;;;;;;;5044791;28;20028;-47
2023/01/21 08:39:43;;;;;;;6.18;4.03;;;;;;;;;;5044962;28;20025;-49
2023/01/21 08:42:09;;;;;;;5.00;3.83;;;;;;;;;;5044692;28;20133;-51
2023/01/21 08:44:35;;;;;;;7.97;4.75;;;;;;;;;;5045670;28;20670;-48
2023/01/21 08:47:01;;;;;;;7.13;4.70;;;;;;;;;;5044367;28;20040;-47
2023/01/21 08:49:27;;;;;;;6.82;4.45;;;;;;;;;;5046030;28;20082;-48
2023/01/21 08:51:54;;;;;;;7.35;4.55;;;;;;;;;;5046067;28;20021;-48
2023/01/21 08:54:20;;;;;;;5.82;4.05;;;;;;;;;;5044681;28;20052;-49
2023/01/21 08:56:46;;;;;;;5.97;4.20;;;;;;;;;;5044918;28;20484;-48
2023/01/21 08:59:12;;;;;;;5.40;3.95;;;;;;;;;;5044586;28;20052;-48
2023/01/21 09:01:39;;;;;;;7.50;4.72;;;;;;;;;;5044839;28;20039;-49
2023/01/21 09:04:07;;;;;;;6.32;4.20;;;;;;;;;;5045342;28;20029;-51
2023/01/21 09:06:33;;;;;;;6.63;3.92;;;;;;;;;;5044860;28;20025;-48
2023/01/21 09:08:59;;;;;;;5.97;4.18;;;;;;;;;;5044379;28;20064;-48
2023/01/21 09:11:27;;;;;;;7.22;4.55;;;;;;;;;;5044506;28;20066;-48
2023/01/21 09:13:53;;;;;;;6.57;4.03;;;;;;;;;;5043334;28;20056;-48
2023/01/21 09:16:20;;;;;;;9.40;5.03;;;;;;;;;;5035564;28;20199;-51
2023/01/21 09:18:48;;;;;;;6.93;4.18;;;;;;;;;;5024289;28;20034;-51
2023/01/21 09:21:14;;;;;;;7.65;4.10;;;;;;;;;;5024704;28;20100;-48
2023/01/21 09:23:41;;;;;;;6.13;3.38;;;;;;;;;;5024583;28;20034;-47
2023/01/21 09:26:08;;;;;;;6.57;3.97;;;;;;;;;;5024901;28;20018;-47
2023/01/21 09:28:37;;;;;;;5.45;3.97;;;;;;;;;;5025216;28;20397;-51
2023/01/21 09:31:07;;;;;;;6.03;3.72;;;;;;;;;;5024875;28;20092;-49
2023/01/21 09:33:34;;;;;;;6.25;3.92;;;;;;;;;;5024757;28;20022;-48
2023/01/21 09:36:02;;;;;;;5.35;3.42;;;;;;;;;;5024388;28;20033;-49
2023/01/21 09:38:28;;;;;;;5.07;3.40;;;;;;;;;;5024681;28;20029;-47
2023/01/21 09:40:54;;;;;;;4.53;3.15;;;;;;;;;;5026736;28;20060;-49
2023/01/21 09:43:25;;;;;;;5.40;3.55;;;;;;;;;;5027763;28;20094;-51
2023/01/21 09:45:53;;;;;;;6.18;3.42;;;;;;;;;;5028155;28;20052;-52
2023/01/21 09:48:27;;;;;;;5.45;3.25;;;;;;;;;;5027992;28;20200;-49
2023/01/21 09:50:55;;;;;;;4.50;3.25;;;;;;;;;;5027852;28;20072;-49
2023/01/21 09:53:27;;;;;;;6.03;4.05;;;;;;;;;;5027787;28;20026;-50
2023/01/21 09:55:57;;;;;;;5.30;3.60;;;;;;;;;;5027773;28;20064;-52
2023/01/21 09:58:23;;;;;;;4.30;3.20;;;;;;;;;;5027822;28;20072;-47
2023/01/21 10:00:55;;;;;;;5.05;3.50;;;;;;;;;;5027598;28;20505;-52
2023/01/21 10:03:22;;;;;;;4.60;3.40;;;;;;;;;;5027506;28;20025;-48
2023/01/21 10:05:51;;;;;;;5.40;3.35;;;;;;;;;;5028003;28;20021;-49
2023/01/21 10:08:29;;;;;;;4.20;2.70;;;;;;;;;;5027559;28;20021;-49
2023/01/21 10:11:07;;;;;;;5.03;3.42;;;;;;;;;;5026203;28;20418;-47
2023/01/21 10:13:34;;;;;;;7.03;4.13;;;;;;;;;;5027727;28;20025;-49
2023/01/21 10:16:00;;;;;;;7.57;3.92;;;;;;;;;;5027560;28;20503;-48
2023/01/21 10:18:28;;;;;;;5.05;3.67;;;;;;;;;;5027372;28;20431;-52
2023/01/21 10:20:56;;;;;;;6.70;4.03;;;;;;;;;;5027510;28;20025;-49
2023/01/21 10:23:22;;;;;;;6.38;3.83;;;;;;;;;;5027186;28;20026;-48
2023/01/21 10:25:49;;;;;;;5.60;3.10;;;;;;;;;;5027757;28;20406;-53
2023/01/21 10:28:29;;;;;;;6.22;3.55;;;;;;;;;;5027139;28;20032;-51
2023/01/21 10:30:58;;;;;;;4.25;3.10;;;;;;;;;;5027368;28;20747;-49
2023/01/21 10:33:25;;;;;;;3.60;2.88;;;;;;;;;;5026882;28;20049;-51
2023/01/21 10:36:01;;;;;;;5.32;3.15;;;;;;;;;;5027265;28;20045;-49
2023/01/21 10:38:37;;;;;;;5.20;3.08;;;;;;;;;;5026919;28;20500;-52
2023/01/21 10:41:03;;;;;;;6.47;4.32;;;;;;;;;;5026835;28;20025;-48
2023/01/21 10:43:38;;;;;;;9.60;5.18;;;;;;;;;;5027274;28;20032;-50
2023/01/21 10:46:13;;;;;;;8.70;4.82;;;;;;;;;;5027218;28;20053;-49
2023/01/21 10:48:50;;;;;;;8.43;4.38;;;;;;;;;;5026704;28;20030;-49
2023/01/21 10:51:16;;;;;;;7.63;4.32;;;;;;;;;;5026448;28;20408;-49
2023/01/21 10:53:49;;;;;;;8.65;4.95;;;;;;;;;;5026703;28;20026;-47
2023/01/21 10:56:25;;;;;;;8.65;4.85;;;;;;;;;;5026987;28;20063;-49
2023/01/21 10:58:55;;;;;;;7.40;4.57;;;;;;;;;;5027367;28;20468;-49
2023/01/21 11:01:29;;;;;;;6.00;4.22;;;;;;;;;;5027263;28;20033;-49
2023/01/21 11:04:15;;;;;;;6.95;4.70;;;;;;;;;;5027040;28;20075;-47
2023/01/21 11:06:43;;;;;;;7.25;4.22;;;;;;;;;;5026720;28;20087;-47
2023/01/21 11:09:12;;;;;;;9.70;4.80;;;;;;;;;;5026780;28;20075;-49
2023/01/21 11:11:41;;;;;;;6.80;4.63;;;;;;;;;;5026573;28;20523;-47
2023/01/21 11:14:08;;;;;;;10.60;6.50;;;;;;;;;;5026776;28;20021;-49
2023/01/21 11:16:47;;;;;;;11.98;6.32;;;;;;;;;;5039190;28;20115;-47
2023/01/21 11:19:21;;;;;;;14.13;8.10;;;;;;;;;;5046573;28;20025;-48
2023/01/21 11:21:58;;;;;;;12.65;6.88;;;;;;;;;;5047381;28;20033;-49
2023/01/21 11:24:26;;;;;;;9.52;5.78;;;;;;;;;;5046400;28;20040;-50
2023/01/21 11:26:57;;;;;;;8.55;5.22;;;;;;;;;;5046143;28;20554;-49
2023/01/21 11:29:24;;;;;;;7.88;4.63;;;;;;;;;;5046343;28;20029;-50
2023/01/21 11:31:52;;;;;;;7.00;4.70;;;;;;;;;;5046827;28;20107;-51
2023/01/21 11:34:19;;;;;;;7.07;3.72;;;;;;;;;;5046975;28;20021;-48
2023/01/21 11:37:02;;;;;;;6.35;3.50;;;;;;;;;;5046301;28;20503;-50
2023/01/21 11:39:31;;;;;;;4.55;3.20;;;;;;;;;;5038413;28;20025;-49
2023/01/21 11:42:02;;;;;;;6.78;3.80;;;;;;;;;;5046561;28;20040;-49
2023/01/21 11:44:28;;;;;;;5.90;3.38;;;;;;;;;;5047574;28;20056;-48
2023/01/21 11:46:54;;;;;;;4.45;3.10;;;;;;;;;;5047665;28;20085;-49
2023/01/21 11:49:22;;;;;;;4.65;3.30;;;;;;;;;;5046341;28;20521;-48
2023/01/21 11:51:49;;;;;;;6.03;3.17;;;;;;;;;;5046398;28;20423;-47
2023/01/21 11:54:22;;;;;;;4.07;2.80;;;;;;;;;;5045431;28;20025;-49
2023/01/21 11:57:01;;;;;;;6.03;3.80;;;;;;;;;;5044572;28;20492;-49
2023/01/21 11:59:32;;;;;;;3.90;2.92;;;;;;;;;;5043852;28;20017;-50
2023/01/21 12:02:06;;;;;;;4.80;2.90;;;;;;;;;;5050546;28;20103;-51
2023/01/21 12:04:32;;;;;;;4.38;2.92;;;;;;;;;;5046822;28;20036;-50
2023/01/21 12:06:59;;;;;;;4.53;2.80;;;;;;;;;;5044398;28;20094;-50
2023/01/21 12:09:26;;;;;;;3.83;2.40;;;;;;;;;;5040151;28;20510;-51
2023/01/21 12:12:21;;;;;;;4.53;3.50;;;;;;;;;;5045061;28;20033;-47
2023/01/21 12:14:54;;;;;;;6.95;4.63;;;;;;;;;;5046899;28;20029;-52
2023/01/21 12:17:39;;;;;;;6.22;3.90;;;;;;;;;;5047443;28;20119;-47
2023/01/21 12:20:14;;;;;;;5.40;3.65;;;;;;;;;;5047606;28;20033;-48
2023/01/21 12:23:03;;;;;;;4.28;3.00;;;;;;;;;;5047669;28;20503;-51
2023/01/21 12:25:40;;;;;;;3.97;2.78;;;;;;;;;;5046926;28;20504;-49
2023/01/21 12:28:09;;;;;;;4.30;2.80;;;;;;;;;;5046438;28;20555;-49
2023/01/21 12:30:41;;;;;;;4.43;2.75;;;;;;;;;;5047558;28;20029;-50
2023/01/21 12:33:16;;;;;;;3.78;2.88;;;;;;;;;;5045432;28;20082;-49
2023/01/21 12:35:45;;;;;;;3.95;2.70;;;;;;;;;;5046460;28;20021;-49
2023/01/21 12:38:26;;;;;;;4.40;2.70;;;;;;;;;;5047495;28;20028;-48
2023/01/21 12:41:12;;;;;;;4.47;3.25;;;;;;;;;;5043887;28;20021;-52
2023/01/21 12:43:46;;;;;;;5.43;3.50;;;;;;;;;;5046416;28;20029;-49
2023/01/21 12:46:18;;;;;;;5.03;3.33;;;;;;;;;;5046682;28;20021;-50
2023/01/21 12:48:44;;;;;;;3.30;2.78;;;;;;;;;;5046400;28;20036;-52
2023/01/21 12:51:14;;;;;;;4.75;3.20;;;;;;;;;;5044658;28;20029;-50
2023/01/21 12:53:43;;;;;;;5.07;3.22;;;;;;;;;;5046224;28;20033;-51
2023/01/21 12:56:19;;;;;;;4.43;2.83;;;;;;;;;;5043300;28;20488;-49
2023/01/21 12:59:05;;;;;;;3.78;2.75;;;;;;;;;;5034916;28;20037;-49
2023/01/21 13:01:31;;;;;;;4.25;3.25;;;;;;;;;;5031387;28;20058;-51
2023/01/21 13:04:16;;;;;;;4.45;2.92;;;;;;;;;;5045751;28;20695;-50
2023/01/21 13:06:42;;;;;;;;;;;;;;;;;;5042490;28;20163;-51
2023/01/21 13:09:13;;;;;;;4.15;3.30;;;;;;;;;;5043350;28;20011;-48
2023/01/21 13:11:43;;;;;;;5.38;3.38;;;;;;;;;;5043579;28;20040;-48
2023/01/21 13:14:16;;;;;;;6.82;3.88;;;;;;;;;;5044581;28;20463;-50
2023/01/21 13:16:47;;;;;;;3.95;2.70;;;;;;;;;;5047788;28;20032;-48
2023/01/21 13:19:13;;;;;;;4.78;3.45;;;;;;;;;;5047220;28;20411;-48
2023/01/21 13:21:49;;;;;;;4.50;3.30;;;;;;;;;;5046837;28;20064;-48
2023/01/21 13:24:27;;;;;;;3.92;2.45;;;;;;;;;;5047337;28;20029;-51
2023/01/21 13:27:00;;;;;;;6.30;3.40;;;;;;;;;;5046294;28;20025;-50
2023/01/21 13:29:27;;;;;;;6.35;3.85;;;;;;;;;;5047324;28;20029;-49
2023/01/21 13:31:56;;;;;;;5.32;3.30;;;;;;;;;;5045810;28;20029;-51
2023/01/21 13:34:36;;;;;;;13.13;6.35;;;;;;;;;;5041346;28;20056;-49
2023/01/21 13:37:08;;;;;;;13.07;6.13;;;;;;;;;;5047374;28;20033;-48
2023/01/21 13:39:41;;;;;;;11.50;5.20;;;;;;;;;;5047496;28;20112;-49
2023/01/21 13:42:08;;;;;;;8.25;4.38;;;;;;;;;;5046933;28;20108;-49
2023/01/21 13:44:45;;;;;;;7.00;4.05;;;;;;;;;;5047494;28;20029;-49
2023/01/21 13:47:20;;;;;;;6.97;3.88;;;;;;;;;;5040496;28;20072;-51
2023/01/21 13:49:58;;;;;;;6.18;3.55;;;;;;;;;;5043640;28;20029;-51
2023/01/21 13:52:42;;;;;;;6.90;3.75;;;;;;;;;;5039794;28;20021;-49
2023/01/21 13:55:17;;;;;;;4.05;2.80;;;;;;;;;;5047168;28;20066;-49
2023/01/21 13:57:50;;;;;;;5.25;2.95;;;;;;;;;;5046946;28;20483;-48
2023/01/21 14:00:28;;;;;;;3.80;2.30;;;;;;;;;;5046393;28;20033;-51
2023/01/21 14:02:59;;;;;;;3.30;2.22;;;;;;;;;;5029378;28;20147;-48
2023/01/21 14:05:25;;;;;;;3.58;2.40;;;;;;;;;;5046470;28;20685;-49
2023/01/21 14:07:55;;;;;;;3.63;2.03;;;;;;;;;;5046150;28;20471;-48
2023/01/21 14:10:32;;;;;;;2.80;2.13;;;;;;;;;;5043602;28;20029;-49
2023/01/21 14:13:07;;;;;;;3.28;2.40;;;;;;;;;;5043138;28;20037;-48
2023/01/21 14:15:48;;;;;;;2.95;1.88;;;;;;;;;;5045363;28;20515;-50
2023/01/21 14:18:32;;;;;;;3.63;2.55;;;;;;;;;;5044886;28;20231;-48
2023/01/21 14:21:08;;;;;;;3.78;2.38;;;;;;;;;;5044556;28;20028;-50
2023/01/21 14:23:34;;;;;;;4.15;2.40;;;;;;;;;;5042463;28;20033;-48
2023/01/21 14:26:11;;;;;;;3.78;2.33;;;;;;;;;;5044475;28;20389;-51
2023/01/21 14:28:53;;;;;;;4.50;2.47;;;;;;;;;;5044309;28;20071;-52
2023/01/21 14:31:21;;;;;;;5.55;3.00;;;;;;;;;;5045202;28;20025;-48
2023/01/21 14:34:17;;;;;;;3.97;2.75;;;;;;;;;;5045256;28;20037;-50
2023/01/21 14:36:43;;;;;;;5.15;3.15;;;;;;;;;;5032169;28;20033;-51
2023/01/21 14:39:44;;;;;;;3.97;2.45;;;;;;;;;;5045200;28;20059;-48
2023/01/21 14:42:12;;;;;;;3.97;2.72;;;;;;;;;;4976792;28;20035;-48
2023/01/21 14:45:00;;;;;;;5.75;2.75;;;;;;;;;;5015207;28;20821;-48
2023/01/21 14:47:29;;;;;;;4.25;2.10;;;;;;;;;;5044630;28;20500;-49
2023/01/21 14:49:56;;;;;;;3.45;2.33;;;;;;;;;;5044547;28;20407;-49
2023/01/21 14:52:29;;;;;;;3.00;1.92;;;;;;;;;;5044753;28;20530;-48
2023/01/21 14:54:56;;;;;;;3.75;2.05;;;;;;;;;;5038374;28;20439;-49
2023/01/21 14:57:28;;;;;;;3.88;2.28;;;;;;;;;;5045283;28;20108;-49
2023/01/21 15:00:02;;;;;;;4.93;2.47;;;;;;;;;;5026027;28;20025;-48
2023/01/21 15:02:48;;;;;;;3.67;2.30;;;;;;;;;;5025221;28;20535;-48
2023/01/21 15:05:18;;;;;;;3.28;1.90;;;;;;;;;;4994484;28;20037;-51
2023/01/21 15:07:45;;;;;;;2.35;1.80;;;;;;;;;;5025307;28;20052;-50
2023/01/21 15:10:30;;;;;;;3.25;2.00;;;;;;;;;;5034319;28;20443;-49
2023/01/21 15:12:58;;;;;;;3.47;2.22;;;;;;;;;;5042296;28;20690;-48
2023/01/21 15:15:35;;;;;;;2.00;1.75;;;;;;;;;;5044457;28;20108;-51
2023/01/21 15:18:04;;;;;;;2.40;1.67;;;;;;;;;;5044574;28;20492;-48
2023/01/21 15:20:37;;;;;;;2.42;1.58;;;;;;;;;;5044155;28;20102;-49
2023/01/21 15:23:04;;;;;;;2.63;1.73;;;;;;;;;;5044942;28;20047;-49
2023/01/21 15:25:33;;;;;;;2.22;1.40;;;;;;;;;;5043345;28;20029;-51
2023/01/21 15:28:17;;;;;;;1.38;1.00;;;;;;;;;;5044756;28;20044;-48
2023/01/21 15:30:54;;;;;;;2.17;1.42;;;;;;;;;;5041478;28;20033;-47
2023/01/21 15:33:20;;;;;;;1.65;1.20;;;;;;;;;;5041579;28;20029;-49
2023/01/21 15:35:47;;;;;;;2.35;1.50;;;;;;;;;;5043929;28;20636;-47
2023/01/21 15:38:14;;;;;;;2.15;1.48;;;;;;;;;;5042432;28;20408;-51
2023/01/21 15:40:42;;;;;;;1.88;1.40;;;;;;;;;;5042784;28;20033;-48
2023/01/21 15:43:26;;;;;;;2.45;1.40;;;;;;;;;;5043489;28;20220;-51
2023/01/21 15:46:03;;;;;;;1.83;1.20;;;;;;;;;;5043524;28;20426;-52
2023/01/21 15:48:47;;;;;;;2.83;1.58;;;;;;;;;;5042126;28;20095;-50
2023/01/21 15:51:13;;;;;;;2.83;1.48;;;;;;;;;;5042977;28;20029;-48
2023/01/21 15:53:58;;;;;;;3.80;2.15;;;;;;;;;;5042462;28;20556;-48
2023/01/21 15:56:27;;;;;;;4.18;2.15;;;;;;;;;;5041215;28;20107;-49
2023/01/21 15:59:15;;;;;;;4.88;1.70;;;;;;;;;;5043187;28;20032;-47
2023/01/21 16:01:41;;;;;;;2.72;1.60;;;;;;;;;;5043071;28;20431;-50
2023/01/21 16:04:13;;;;;;;3.00;1.50;;;;;;;;;;5043269;28;20031;-49
2023/01/21 16:07:02;;;;;;;1.67;1.40;;;;;;;;;;5043001;28;20045;-47
2023/01/21 16:09:28;;;;;;;1.40;1.20;;;;;;;;;;5033937;28;20042;-49
2023/01/21 16:12:13;;;;;;;1.65;1.10;;;;;;;;;;5043458;28;20028;-48
2023/01/21 16:14:52;;;;;;;2.05;1.40;;;;;;;;;;5043101;28;20522;-48
2023/01/21 16:17:37;;;;;;;1.70;1.13;;;;;;;;;;5005616;28;1080525;-51
2023/01/21 16:20:05;;;;;;;1.45;1.00;;;;;;;;;;5033385;28;20118;-48
2023/01/21 16:22:33;;;;;;;1.63;1.20;;;;;;;;;;5041383;28;20033;-47
2023/01/21 16:25:01;;;;;;;1.00;0.90;;;;;;;;;;5043783;28;20036;-49
2023/01/21 16:27:29;;;;;;;1.52;1.23;;;;;;;;;;5043778;28;20868;-51
2023/01/21 16:29:59;;;;;;;2.40;1.20;;;;;;;;;;5043383;28;20029;-49
2023/01/21 16:32:26;;;;;;;1.20;1.10;;;;;;;;;;5043461;28;20036;-48
2023/01/21 16:34:52;;;;;;;1.20;1.10;;;;;;;;;;5042887;28;20032;-48
2023/01/21 16:37:19;;;;;;;1.23;1.02;;;;;;;;;;5042651;28;20041;-51
2023/01/21 16:39:45;;;;;;;1.73;1.30;;;;;;;;;;5041577;28;20025;-50
2023/01/21 16:42:40;;;;;;;1.85;1.30;;;;;;;;;;5043730;28;20032;-49
2023/01/21 16:45:06;;;;;;;;;;;;;;;;;;5042445;28;20045;-48
2023/01/21 16:47:34;;;;;;;2.78;1.20;;;;;;;;;;5043797;28;19955;-50
2023/01/21 16:50:00;;;;;;;1.42;1.20;;;;;;;;;;5046418;28;20029;-48
2023/01/21 16:52:27;;;;;;;1.35;1.25;;;;;;;;;;5047671;28;20013;-48
2023/01/21 16:54:55;;;;;;;2.22;1.27;;;;;;;;;;5047693;28;20522;-50
2023/01/21 16:57:24;;;;;;;1.65;1.20;;;;;;;;;;5047376;28;20025;-48
2023/01/21 16:59:56;;;;;;;2.22;1.10;;;;;;;;;;5047518;28;20021;-49
2023/01/21 17:02:27;;;;;;;2.20;1.40;;;;;;;;;;5047054;28;20045;-52
2023/01/21 17:04:57;;;;;;;3.25;1.17;;;;;;;;;;5044106;28;20106;-50
2023/01/21 17:07:27;;;;;;;2.15;1.50;;;;;;;;;;5045297;28;20036;-48
2023/01/21 17:09:55;;;;;;;2.20;1.75;;;;;;;;;;5048880;28;20031;-50
2023/01/21 17:12:25;;;;;;;2.13;1.50;;;;;;;;;;5048723;28;20159;-50
2023/01/21 17:14:54;;;;;;;2.13;1.50;;;;;;;;;;5049748;28;20133;-49
2023/01/21 17:17:22;;;;;;;2.70;1.83;;;;;;;;;;5049736;28;20029;-50
2023/01/21 17:19:49;;;;;;;3.60;1.60;;;;;;;;;;5032703;28;20029;-49
2023/01/21 17:22:22;;;;;;;2.33;1.63;;;;;;;;;;5025600;28;20036;-49
2023/01/21 17:24:59;;;;;;;1.83;1.40;;;;;;;;;;5029415;28;20453;-52
2023/01/21 17:27:26;;;;;;;2.22;1.75;;;;;;;;;;5030002;28;20028;-53
2023/01/21 17:29:52;;;;;;;2.38;1.60;;;;;;;;;;5029265;28;20419;-53
2023/01/21 17:32:21;;;;;;;3.25;1.60;;;;;;;;;;5028528;28;20031;-49
2023/01/21 17:35:02;;;;;;;2.75;1.83;;;;;;;;;;5030520;28;20033;-53
2023/01/21 17:37:47;;;;;;;2.03;1.50;;;;;;;;;;5029085;28;20028;-49
2023/01/21 17:40:33;;;;;;;3.60;1.52;;;;;;;;;;5015743;28;20025;-49
2023/01/21 17:43:01;;;;;;;2.58;1.60;;;;;;;;;;5029309;28;20041;-50
2023/01/21 17:45:36;;;;;;;2.88;1.70;;;;;;;;;;5029584;28;20072;-50
2023/01/21 17:48:03;;;;;;;3.33;1.85;;;;;;;;;;5029533;28;20029;-48
2023/01/21 17:50:30;;;;;;;2.80;1.73;;;;;;;;;;5029516;28;20483;-52
2023/01/21 17:52:56;;;;;;;2.95;1.67;;;;;;;;;;5029158;28;20147;-52
2023/01/21 17:55:28;;;;;;;2.53;1.80;;;;;;;;;;5029099;28;20535;-50
2023/01/21 17:57:54;;;;;;;4.28;1.80;;;;;;;;;;5027720;28;20455;-52
2023/01/21 18:00:41;;;;;;;3.17;1.92;;;;;;;;;;5025925;28;20480;-51
2023/01/21 18:03:07;;;;;;;2.63;1.77;;;;;;;;;;5027595;28;20033;-51
2023/01/21 18:05:34;;;;;;;1.98;1.58;;;;;;;;;;5027213;28;20391;-51
2023/01/21 18:08:01;;;;;;;2.35;1.85;;;;;;;;;;5026245;28;20037;-50
2023/01/21 18:10:28;;;;;;;2.50;1.95;;;;;;;;;;5024690;28;20041;-48
2023/01/21 18:12:57;;;;;;;3.65;2.03;;;;;;;;;;5027474;28;20026;-50
2023/01/21 18:15:23;;;;;;;3.33;1.80;;;;;;;;;;5029930;28;20037;-52
2023/01/21 18:17:59;;;;;;;2.85;1.92;;;;;;;;;;5046229;28;20029;-50
2023/01/21 18:20:26;;;;;;;4.72;2.42;;;;;;;;;;5045627;28;20029;-48
2023/01/21 18:22:53;;;;;;;3.13;1.90;;;;;;;;;;5046052;28;20499;-48
2023/01/21 18:25:19;;;;;;;2.92;1.80;;;;;;;;;;5047542;28;20495;-50
2023/01/21 18:27:50;;;;;;;3.20;2.25;;;;;;;;;;5047503;28;20056;-53
2023/01/21 18:30:16;;;;;;;3.53;2.38;;;;;;;;;;5054308;28;20040;-48
2023/01/21 18:32:43;;;;;;;2.40;2.05;;;;;;;;;;5047019;28;20021;-49
2023/01/21 18:35:09;;;;;;;5.75;2.35;;;;;;;;;;5046492;28;20041;-49
2023/01/21 18:37:35;;;;;;;3.40;2.33;;;;;;;;;;5048294;28;20526;-48
2023/01/21 18:40:04;;;;;;;3.63;2.75;;;;;;;;;;5047189;28;20021;-49
2023/01/21 18:42:30;;;;;;;3.85;2.30;;;;;;;;;;5046066;28;20025;-50
2023/01/21 18:44:56;;;;;;;2.90;2.20;;;;;;;;;;5047256;28;20045;-51
2023/01/21 18:47:22;;;;;;;3.55;2.38;;;;;;;;;;5047258;28;20025;-53
2023/01/21 18:49:49;;;;;;;3.20;2.30;;;;;;;;;;5029452;28;20033;-53
2023/01/21 18:52:19;;;;;;;3.70;2.45;;;;;;;;;;5043228;28;20021;-49
2023/01/21 18:54:46;;;;;;;4.47;2.75;;;;;;;;;;5045401;28;20041;-49
2023/01/21 18:57:13;;;;;;;3.88;2.40;;;;;;;;;;5042058;28;20056;-49
2023/01/21 18:59:40;;;;;;;4.57;2.38;;;;;;;;;;5044623;28;20053;-48
2023/01/21 19:02:24;;;;;;;5.30;2.60;;;;;;;;;;5045154;28;20024;-52
2023/01/21 19:04:50;;;;;;;5.47;3.10;;;;;;;;;;5041951;28;20036;-48
2023/01/21 19:07:19;;;;;;;4.47;2.83;;;;;;;;;;5044007;28;20020;-50
2023/01/21 19:09:45;;;;;;;4.32;2.53;;;;;;;;;;5044040;28;20403;-49
2023/01/21 19:12:17;;;;;;;4.43;2.75;;;;;;;;;;5042509;28;20024;-49
2023/01/21 19:14:43;;;;;;;6.20;2.88;;;;;;;;;;5044456;28;20110;-50
2023/01/21 19:17:12;;;;;;;4.95;2.72;;;;;;;;;;5044308;28;20055;-48
2023/01/21 19:19:38;;;;;;;4.28;3.20;;;;;;;;;;5043902;28;20037;-47
2023/01/21 19:22:05;;;;;;;4.40;2.67;;;;;;;;;;5043953;28;20059;-48
2023/01/21 19:24:31;;;;;;;3.25;2.38;;;;;;;;;;5042058;28;20060;-48
2023/01/21 19:26:59;;;;;;;4.15;2.72;;;;;;;;;;5043988;28;20530;-49
2023/01/21 19:29:27;;;;;;;5.03;3.25;;;;;;;;;;5043844;28;20029;-49
2023/01/21 19:31:53;;;;;;;4.43;2.72;;;;;;;;;;5044011;28;20028;-49
2023/01/21 19:34:23;;;;;;;5.05;3.15;;;;;;;;;;5041617;28;20056;-50
2023/01/21 19:36:49;;;;;;;4.85;2.78;;;;;;;;;;5027563;28;20064;-49
2023/01/21 19:39:17;;;;;;;3.90;2.70;;;;;;;;;;5044378;28;20029;-48
2023/01/21 19:41:44;;;;;;;4.25;2.58;;;;;;;;;;5043817;28;20116;-51
2023/01/21 19:44:10;;;;;;;4.55;2.65;;;;;;;;;;5044133;28;20056;-50
2023/01/21 19:46:36;;;;;;;4.07;2.53;;;;;;;;;;5042828;28;20032;-48
2023/01/21 19:49:10;;;;;;;4.63;3.00;;;;;;;;;;5043152;28;20390;-49
2023/01/21 19:51:36;;;;;;;4.28;2.85;;;;;;;;;;5038443;28;20021;-51
2023/01/21 19:54:02;;;;;;;5.15;3.55;;;;;;;;;;5044348;28;20029;-48
2023/01/21 19:56:28;;;;;;;5.97;4.18;;;;;;;;;;5041648;28;20459;-53
2023/01/21 19:58:54;;;;;;;8.73;4.43;;;;;;;;;;5041190;28;20024;-50
2023/01/21 20:01:21;;;;;;;7.70;4.88;;;;;;;;;;5040030;28;20284;-48
2023/01/21 20:03:47;;;;;;;5.72;3.63;;;;;;;;;;5041684;28;20484;-49